Time;durP1;ratioP1;P1;durP2;ratioP2;P2;SDS_P1;SDS_P2;PMS_P1;PMS_P2;Temp;Humidity;BMP_temperature;BMP_pressure;BME280_temperature;BME280_humidity;BME280_pressure;Samples;Min_cycle;Max_cycle;Signal;HPM_P1;HPM_P2
2022/09/22 00:00:56;;;;;;;8.77;2.13;;;9.80;99.90;;;;;;6165583;29;20503;-67
2022/09/22 00:04:04;;;;;;;14.45;2.50;;;9.80;99.90;;;;;;6165287;28;20283;-67
2022/09/22 00:07:11;;;;;;;8.63;2.33;;;9.70;99.90;;;;;;6165338;29;20391;-68
2022/09/22 00:10:17;;;;;;;10.38;2.40;;;9.70;99.90;;;;;;6159380;28;20238;-67
2022/09/22 00:13:22;;;;;;;9.32;2.50;;;9.70;99.90;;;;;;6141484;29;20227;-67
2022/09/22 00:16:29;;;;;;;5.50;1.98;;;9.70;99.90;;;;;;6141649;29;20270;-67
2022/09/22 00:19:37;;;;;;;2.10;1.90;;;9.70;99.90;;;;;;6141235;29;20550;-67
2022/09/22 00:22:41;;;;;;;2.10;1.95;;;9.70;99.90;;;;;;6141477;29;20299;-68
2022/09/22 00:25:45;;;;;;;1.77;1.70;;;9.70;99.90;;;;;;6141684;29;20195;-68
2022/09/22 00:28:52;;;;;;;3.80;1.80;;;9.60;99.90;;;;;;6140881;29;20572;-68
2022/09/22 00:31:57;;;;;;;1.92;1.92;;;9.60;99.90;;;;;;6141741;29;20259;-68
2022/09/22 00:35:07;;;;;;;1.90;1.80;;;9.60;99.90;;;;;;6139849;29;20231;-68
2022/09/22 00:38:13;;;;;;;1.98;1.88;;;9.60;99.90;;;;;;6140741;29;20231;-68
2022/09/22 00:41:22;;;;;;;1.75;1.75;;;9.50;99.90;;;;;;6141371;29;20188;-68
2022/09/22 00:44:46;;;;;;;1.98;1.90;;;9.50;99.90;;;;;;6141036;29;20305;-68
2022/09/22 00:47:51;;;;;;;2.00;1.90;;;9.60;99.90;;;;;;6140974;29;20238;-68
2022/09/22 00:50:56;;;;;;;2.55;2.35;;;9.60;99.90;;;;;;6141349;29;20196;-68
2022/09/22 00:54:02;;;;;;;2.08;1.88;;;9.50;99.90;;;;;;6140788;29;20299;-68
2022/09/22 00:57:11;;;;;;;1.75;1.67;;;9.60;99.90;;;;;;6141137;29;20232;-68
2022/09/22 01:00:17;;;;;;;2.08;1.70;;;9.60;99.90;;;;;;6139983;29;20463;-68
2022/09/22 01:03:24;;;;;;;4.18;1.83;;;9.60;99.90;;;;;;6140468;29;20231;-68
2022/09/22 01:06:33;;;;;;;1.80;1.80;;;9.50;99.90;;;;;;6140572;29;20192;-68
2022/09/22 01:09:38;;;;;;;1.50;1.50;;;9.50;99.90;;;;;;6141381;29;20243;-68
2022/09/22 01:12:52;;;;;;;1.50;1.50;;;9.50;99.90;;;;;;6163841;28;20223;-68
2022/09/22 01:16:18;;;;;;;2.25;1.58;;;9.50;99.90;;;;;;6164655;28;20188;-68
2022/09/22 01:20:04;;;;;;;3.63;1.52;;;9.50;99.90;;;;;;6164028;28;20266;-68
2022/09/22 01:24:21;;;;;;;2.22;2.00;;;9.50;99.90;;;;;;6164088;28;20227;-68
2022/09/22 01:27:57;;;;;;;1.60;1.50;;;9.40;99.90;;;;;;6113182;29;20458;-68
2022/09/22 01:31:05;;;;;;;5.38;1.50;;;9.50;99.90;;;;;;6107881;29;20208;-67
2022/09/22 01:34:19;;;;;;;1.63;1.55;;;9.50;99.90;;;;;;6140078;29;20248;-67
2022/09/22 01:37:28;;;;;;;2.90;1.70;;;9.50;99.90;;;;;;6139649;29;20199;-67
2022/09/22 01:40:41;;;;;;;8.15;1.75;;;9.40;99.90;;;;;;6140466;29;20219;-67
2022/09/22 01:43:52;;;;;;;1.30;1.30;;;9.40;99.90;;;;;;6139987;29;20298;-67
2022/09/22 01:47:03;;;;;;;1.80;1.70;;;9.40;99.90;;;;;;6139963;29;20578;-68
2022/09/22 01:50:13;;;;;;;3.05;1.75;;;9.40;99.90;;;;;;6140075;29;20255;-68
2022/09/22 01:53:21;;;;;;;4.72;1.50;;;9.30;99.90;;;;;;6139635;29;20538;-67
2022/09/22 01:56:27;;;;;;;1.80;1.70;;;9.30;99.90;;;;;;6140701;29;20200;-68
2022/09/22 01:59:34;;;;;;;1.50;1.50;;;9.30;99.90;;;;;;6139899;29;20299;-68
2022/09/22 02:02:43;;;;;;;1.90;1.58;;;9.30;99.90;;;;;;6139517;29;20238;-68
2022/09/22 02:05:51;;;;;;;2.08;1.98;;;9.20;99.90;;;;;;6140310;29;20188;-68
2022/09/22 02:09:00;;;;;;;1.38;1.38;;;9.20;99.90;;;;;;6139554;29;20236;-68
2022/09/22 02:12:05;;;;;;;1.42;1.42;;;9.20;99.90;;;;;;6124557;29;20200;-68
2022/09/22 02:15:58;;;;;;;3.45;1.50;;;9.20;99.90;;;;;;6143223;29;20232;-68
2022/09/22 02:18:41;;;;;;;1.40;1.40;;;9.20;99.90;;;;;;6143920;28;20406;-68
2022/09/22 02:21:48;;;;;;;1.50;1.40;;;9.30;99.90;;;;;;6144595;29;20188;-68
2022/09/22 02:24:52;;;;;;;1.30;1.30;;;9.30;99.90;;;;;;6144075;29;20550;-68
2022/09/22 02:27:57;;;;;;;1.50;1.48;;;9.20;99.90;;;;;;6144019;29;20254;-69
2022/09/22 02:31:02;;;;;;;1.65;1.40;;;9.20;99.90;;;;;;6144033;29;20377;-68
2022/09/22 02:34:24;;;;;;;7.03;1.60;;;9.20;99.90;;;;;;6143863;29;20303;-68
2022/09/22 02:37:36;;;;;;;1.40;1.40;;;9.20;99.90;;;;;;6143783;29;20220;-68
2022/09/22 02:40:46;;;;;;;2.58;1.40;;;9.20;99.90;;;;;;6143849;29;20239;-68
2022/09/22 02:43:55;;;;;;;1.52;1.42;;;9.20;99.90;;;;;;6143432;29;20369;-68
2022/09/22 02:47:04;;;;;;;2.70;1.30;;;9.20;99.90;;;;;;6143701;29;20196;-68
2022/09/22 02:50:15;;;;;;;1.20;1.20;;;9.20;99.90;;;;;;6143518;29;20236;-68
2022/09/22 02:53:19;;;;;;;1.20;1.20;;;9.20;99.90;;;;;;6143042;29;20235;-68
2022/09/22 02:56:23;;;;;;;1.75;1.65;;;9.20;99.90;;;;;;6143326;29;20188;-68
2022/09/22 02:59:28;;;;;;;2.05;1.30;;;9.20;99.90;;;;;;6143429;29;20235;-69
2022/09/22 03:02:33;;;;;;;4.25;1.40;;;9.10;99.90;;;;;;6138042;29;20203;-68
2022/09/22 03:05:38;;;;;;;1.55;1.30;;;9.10;99.90;;;;;;6160462;29;20192;-68
2022/09/22 03:08:42;;;;;;;2.67;1.40;;;9.10;99.90;;;;;;6142329;29;20485;-68
2022/09/22 03:11:47;;;;;;;1.40;1.40;;;9.10;99.90;;;;;;6160526;29;20266;-68
2022/09/22 03:14:51;;;;;;;1.85;1.20;;;9.10;99.90;;;;;;6166730;28;20231;-68
2022/09/22 03:17:56;;;;;;;5.10;1.50;;;9.10;99.90;;;;;;6166597;28;20294;-68
2022/09/22 03:21:01;;;;;;;2.78;1.33;;;9.10;99.90;;;;;;6143427;28;20212;-68
2022/09/22 03:24:06;;;;;;;1.67;1.30;;;9.00;99.90;;;;;;6142537;29;20236;-68
2022/09/22 03:27:10;;;;;;;1.30;1.27;;;9.00;99.90;;;;;;6142698;29;20417;-68
2022/09/22 03:30:15;;;;;;;1.10;1.10;;;9.00;99.90;;;;;;6142425;29;20464;-68
2022/09/22 03:33:19;;;;;;;4.38;1.33;;;9.00;99.90;;;;;;6142519;29;20224;-68
2022/09/22 03:36:24;;;;;;;1.50;1.50;;;9.00;99.90;;;;;;6152101;29;20267;-68
2022/09/22 03:39:29;;;;;;;1.25;1.25;;;9.00;99.90;;;;;;6166065;28;20239;-68
2022/09/22 03:42:35;;;;;;;1.35;1.25;;;8.90;99.90;;;;;;6166138;28;20188;-68
2022/09/22 03:45:39;;;;;;;1.50;1.48;;;8.90;99.90;;;;;;6166178;29;20534;-68
2022/09/22 03:48:43;;;;;;;2.08;1.08;;;8.90;99.90;;;;;;6165900;28;20235;-68
2022/09/22 03:51:50;;;;;;;1.30;1.20;;;8.80;99.90;;;;;;6166373;28;20194;-68
2022/09/22 03:54:54;;;;;;;2.20;1.35;;;8.80;99.90;;;;;;6165712;28;20230;-68
2022/09/22 03:57:58;;;;;;;1.50;1.40;;;8.70;99.90;;;;;;6165964;28;20302;-68
2022/09/22 04:01:02;;;;;;;1.40;1.30;;;8.70;99.90;;;;;;6166123;29;20187;-67
2022/09/22 04:04:07;;;;;;;1.90;1.33;;;8.70;99.90;;;;;;6164173;29;20242;-68
2022/09/22 04:07:13;;;;;;;1.20;1.20;;;8.80;99.90;;;;;;6165899;28;20187;-68
2022/09/22 04:10:18;;;;;;;1.63;1.52;;;8.70;99.90;;;;;;6133650;29;20568;-67
2022/09/22 04:13:23;;;;;;;1.13;1.13;;;8.80;99.90;;;;;;6126592;29;20295;-67
2022/09/22 04:16:28;;;;;;;1.35;1.30;;;8.80;99.90;;;;;;6141923;29;20192;-67
2022/09/22 04:19:34;;;;;;;1.98;1.15;;;8.70;99.90;;;;;;6141420;29;20235;-68
2022/09/22 04:22:40;;;;;;;1.40;1.30;;;8.70;99.90;;;;;;6140958;29;20315;-68
2022/09/22 04:25:44;;;;;;;1.20;1.20;;;8.70;99.90;;;;;;6141695;29;20188;-68
2022/09/22 04:28:48;;;;;;;3.80;1.10;;;8.60;99.90;;;;;;6140855;29;20495;-67
2022/09/22 04:31:53;;;;;;;1.38;1.20;;;8.60;99.90;;;;;;6141774;29;20189;-68
2022/09/22 04:34:57;;;;;;;1.35;1.35;;;8.70;99.90;;;;;;6140176;29;20303;-68
2022/09/22 04:38:02;;;;;;;1.35;1.23;;;8.70;99.90;;;;;;6140737;29;20229;-68
2022/09/22 04:41:06;;;;;;;1.20;1.20;;;8.70;99.90;;;;;;6141518;29;20188;-68
2022/09/22 04:44:11;;;;;;;1.45;1.40;;;8.70;99.90;;;;;;6140734;29;20621;-67
2022/09/22 04:47:15;;;;;;;2.15;1.30;;;8.60;99.90;;;;;;6141192;29;20188;-68
2022/09/22 04:50:21;;;;;;;1.30;1.30;;;8.50;99.90;;;;;;6117313;29;20228;-68
2022/09/22 04:53:27;;;;;;;1.48;1.38;;;8.50;99.90;;;;;;6126300;29;20247;-67
2022/09/22 04:56:31;;;;;;;3.05;1.50;;;8.60;99.90;;;;;;6140590;29;20535;-69
2022/09/22 04:59:36;;;;;;;3.05;1.60;;;8.60;99.90;;;;;;6140655;29;20302;-67
2022/09/22 05:02:40;;;;;;;1.40;1.40;;;8.60;99.90;;;;;;6140181;29;20243;-67
2022/09/22 05:05:44;;;;;;;1.48;1.35;;;8.70;99.90;;;;;;6140913;29;20188;-67
2022/09/22 05:08:50;;;;;;;1.38;1.30;;;8.70;99.90;;;;;;6139924;29;20304;-68
2022/09/22 05:12:00;;;;;;;1.85;1.70;;;8.70;99.90;;;;;;6160994;29;20230;-67
2022/09/22 05:15:05;;;;;;;4.68;1.30;;;8.60;99.90;;;;;;6141954;28;20284;-66
2022/09/22 05:18:14;;;;;;;3.75;1.30;;;8.70;99.90;;;;;;6147753;28;20558;-66
2022/09/22 05:21:19;;;;;;;1.30;1.30;;;8.60;99.90;;;;;;6164434;29;20254;-67
2022/09/22 05:24:24;;;;;;;1.73;1.63;;;8.70;99.90;;;;;;6146858;28;20267;-67
2022/09/22 05:27:29;;;;;;;1.65;1.55;;;8.60;99.90;;;;;;6141840;28;20188;-67
2022/09/22 05:30:33;;;;;;;1.80;1.60;;;8.60;99.90;;;;;;6164426;29;20211;-67
2022/09/22 05:33:37;;;;;;;1.48;1.48;;;8.60;99.90;;;;;;6152834;28;20247;-67
2022/09/22 05:36:41;;;;;;;1.40;1.40;;;8.70;99.90;;;;;;6139043;29;20188;-67
2022/09/22 05:39:47;;;;;;;1.77;1.65;;;8.60;99.90;;;;;;6159710;28;20593;-66
2022/09/22 05:42:52;;;;;;;1.55;1.50;;;8.70;99.90;;;;;;6158924;28;20227;-67
2022/09/22 05:45:56;;;;;;;1.90;1.80;;;8.70;99.90;;;;;;6143004;29;20315;-67
2022/09/22 05:49:00;;;;;;;1.10;1.10;;;8.70;99.90;;;;;;6158945;28;20235;-67
2022/09/22 05:52:05;;;;;;;3.88;1.58;;;8.70;99.90;;;;;;6168749;29;20191;-67
2022/09/22 05:55:12;;;;;;;1.38;1.38;;;8.70;99.90;;;;;;6145202;28;20232;-67
2022/09/22 05:58:16;;;;;;;1.58;1.38;;;8.70;99.90;;;;;;6152632;28;20294;-67
2022/09/22 06:01:20;;;;;;;3.55;1.50;;;8.70;99.90;;;;;;6168604;28;20216;-67
2022/09/22 06:04:24;;;;;;;8.18;1.67;;;8.80;99.90;;;;;;6150876;28;20267;-67
2022/09/22 06:07:29;;;;;;;1.38;1.38;;;8.90;99.90;;;;;;6145968;28;20280;-68
2022/09/22 06:10:37;;;;;;;1.85;1.30;;;8.90;99.90;;;;;;6158344;28;20314;-68
2022/09/22 06:13:42;;;;;;;2.10;1.83;;;8.90;99.90;;;;;;6144252;29;20232;-68
2022/09/22 06:16:46;;;;;;;68.40;20.90;;;8.90;99.90;;;;;;6144190;29;20538;-68
2022/09/22 06:19:51;;;;;;;10.48;5.30;;;8.90;99.90;;;;;;6143029;29;20267;-68
2022/09/22 06:22:55;;;;;;;16.05;5.72;;;9.00;99.90;;;;;;6138431;29;20441;-68
2022/09/22 06:26:01;;;;;;;6.43;3.15;;;9.10;99.90;;;;;;6120327;29;20484;-68
2022/09/22 06:29:05;;;;;;;3.25;2.33;;;9.10;99.90;;;;;;6119943;29;20625;-67
2022/09/22 06:32:13;;;;;;;2.85;2.50;;;9.10;99.90;;;;;;6120177;29;20389;-68
2022/09/22 06:35:17;;;;;;;2.83;2.13;;;9.20;99.90;;;;;;6143839;29;20267;-68
2022/09/22 06:38:22;;;;;;;1.85;1.67;;;9.20;99.90;;;;;;6143644;29;20271;-68
2022/09/22 06:41:28;;;;;;;5.65;2.10;;;9.40;99.90;;;;;;6144158;29;20203;-68
2022/09/22 06:44:38;;;;;;;1.98;1.95;;;9.40;99.90;;;;;;6142569;29;20231;-68
2022/09/22 06:47:43;;;;;;;2.10;2.00;;;9.50;99.90;;;;;;6143122;29;20262;-68
2022/09/22 06:50:52;;;;;;;2.00;1.90;;;9.60;99.90;;;;;;6143489;29;20216;-68
2022/09/22 06:53:57;;;;;;;3.22;1.80;;;9.70;99.90;;;;;;6143479;29;20238;-68
2022/09/22 06:57:03;;;;;;;2.47;1.98;;;9.70;99.90;;;;;;6142730;29;20228;-68
2022/09/22 07:00:10;;;;;;;1.90;1.80;;;9.80;99.90;;;;;;6143222;29;20236;-68
2022/09/22 07:03:19;;;;;;;2.00;1.90;;;9.80;99.90;;;;;;6143184;29;20239;-67
2022/09/22 07:06:25;;;;;;;2.85;1.90;;;9.90;99.90;;;;;;6143644;29;20195;-67
2022/09/22 07:09:30;;;;;;;2.30;2.30;;;9.90;99.90;;;;;;6143560;29;20273;-67
2022/09/22 07:12:36;;;;;;;1.75;1.75;;;10.00;99.90;;;;;;6164315;28;20188;-67
2022/09/22 07:15:40;;;;;;;2.22;2.17;;;10.00;99.90;;;;;;6142911;29;20295;-68
2022/09/22 07:18:46;;;;;;;3.97;2.00;;;10.00;99.90;;;;;;6154036;28;20529;-68
2022/09/22 07:21:50;;;;;;;2.42;2.13;;;10.10;99.90;;;;;;6166999;29;20199;-67
2022/09/22 07:24:54;;;;;;;3.63;1.73;;;10.10;99.90;;;;;;6144797;28;20238;-67
2022/09/22 07:28:03;;;;;;;1.85;1.80;;;10.20;99.90;;;;;;6148074;28;20227;-68
2022/09/22 07:31:09;;;;;;;4.38;2.00;;;10.30;99.90;;;;;;6166760;29;20223;-67
2022/09/22 07:34:15;;;;;;;6.53;1.83;;;10.40;99.90;;;;;;6150327;28;20299;-67
2022/09/22 07:37:19;;;;;;;1.65;1.63;;;10.40;99.90;;;;;;6142647;28;20212;-67
2022/09/22 07:40:24;;;;;;;2.05;1.70;;;10.40;99.90;;;;;;6166377;29;20191;-67
2022/09/22 07:43:30;;;;;;;2.35;1.58;;;10.50;99.90;;;;;;6156291;28;20231;-68
2022/09/22 07:46:34;;;;;;;2.22;2.05;;;10.60;99.90;;;;;;6142168;29;20220;-66
2022/09/22 07:49:38;;;;;;;1.65;1.55;;;10.70;99.90;;;;;;6160672;28;20464;-67
2022/09/22 07:52:43;;;;;;;5.78;1.50;;;10.80;99.90;;;;;;6161740;28;20380;-68
2022/09/22 07:55:47;;;;;;;1.35;1.23;;;10.80;99.90;;;;;;6141990;29;20250;-67
2022/09/22 07:58:53;;;;;;;5.30;1.52;;;11.00;99.90;;;;;;6154282;28;20246;-67
2022/09/22 08:01:58;;;;;;;2.05;1.30;;;11.00;99.90;;;;;;6166050;28;20263;-67
2022/09/22 08:05:03;;;;;;;1.60;1.50;;;11.10;99.90;;;;;;6143320;28;20351;-67
2022/09/22 08:08:08;;;;;;;1.40;1.40;;;11.10;99.90;;;;;;6148306;28;20227;-67
2022/09/22 08:11:16;;;;;;;3.28;1.25;;;11.20;99.90;;;;;;6150416;29;20246;-67
2022/09/22 08:14:23;;;;;;;1.63;1.30;;;11.20;99.90;;;;;;6140875;29;20400;-67
2022/09/22 08:17:27;;;;;;;1.02;1.02;;;11.30;99.90;;;;;;6139995;29;20188;-67
2022/09/22 08:20:32;;;;;;;3.97;0.90;;;11.40;99.90;;;;;;6141836;29;20231;-67
2022/09/22 08:23:36;;;;;;;1.10;1.10;;;11.60;99.90;;;;;;6141096;29;20410;-67
2022/09/22 08:26:43;;;;;;;1.10;1.10;;;11.70;99.90;;;;;;6141850;29;20211;-67
2022/09/22 08:29:53;;;;;;;1.10;1.10;;;11.70;99.90;;;;;;6141235;29;20258;-67
2022/09/22 08:33:00;;;;;;;1.15;1.15;;;11.70;99.90;;;;;;6141184;29;20232;-67
2022/09/22 08:36:04;;;;;;;1.48;0.95;;;11.70;99.90;;;;;;6141598;29;20194;-68
2022/09/22 08:39:08;;;;;;;4.20;1.00;;;12.00;99.90;;;;;;6139830;29;20231;-68
2022/09/22 08:42:19;;;;;;;4.55;1.20;;;12.00;99.90;;;;;;6140951;29;20542;-67
2022/09/22 08:45:30;;;;;;;1.60;1.20;;;12.10;99.90;;;;;;6117266;29;20247;-67
2022/09/22 08:52:00;;;;;;;0.80;0.80;;;12.20;99.90;;;;;;6117528;29;20252;-68
2022/09/22 08:55:06;;;;;;;2.85;0.90;;;12.30;99.90;;;;;;6117184;29;20236;-67
2022/09/22 08:58:26;;;;;;;0.80;0.80;;;12.30;99.90;;;;;;6117146;29;20238;-68
2022/09/22 09:02:02;;;;;;;1.23;0.82;;;12.50;99.90;;;;;;6117027;29;20449;-68
2022/09/22 09:06:03;;;;;;;0.75;0.75;;;12.70;99.90;;;;;;6117005;29;20236;-68
2022/09/22 09:09:41;;;;;;;1.33;0.70;;;12.80;99.90;;;;;;6116517;29;20383;-68
2022/09/22 09:12:58;;;;;;;0.98;0.98;;;12.90;99.90;;;;;;6080497;29;20305;-67
2022/09/22 09:16:19;;;;;;;0.90;0.90;;;13.00;99.90;;;;;;6093343;29;20193;-67
2022/09/22 09:19:32;;;;;;;1.00;1.00;;;13.10;99.90;;;;;;6092607;29;20233;-68
2022/09/22 09:22:41;;;;;;;1.20;0.80;;;13.30;99.90;;;;;;6093236;29;20289;-68
2022/09/22 09:25:54;;;;;;;1.48;0.80;;;13.40;99.90;;;;;;6093660;29;20189;-68
2022/09/22 09:29:01;;;;;;;1.05;1.00;;;13.50;99.90;;;;;;6093107;29;20264;-67
2022/09/22 09:32:16;;;;;;;1.00;1.00;;;13.50;99.90;;;;;;6093468;29;20220;-67
2022/09/22 09:35:25;;;;;;;1.30;1.13;;;13.60;99.90;;;;;;6116804;29;20228;-67
2022/09/22 09:38:32;;;;;;;0.90;0.90;;;13.60;99.90;;;;;;6116146;29;20248;-67
2022/09/22 09:41:56;;;;;;;2.38;2.05;;;13.50;99.90;;;;;;6116856;29;20192;-67
2022/09/22 09:45:01;;;;;;;1.98;1.17;;;13.40;99.90;;;;;;6116482;29;20299;-67
2022/09/22 09:48:20;;;;;;;5.22;1.02;;;13.40;99.90;;;;;;6116436;29;20236;-66
2022/09/22 09:51:27;;;;;;;0.93;0.93;;;13.40;99.90;;;;;;6116223;29;20213;-68
2022/09/22 09:54:31;;;;;;;1.00;1.00;;;13.40;99.90;;;;;;6116296;29;20232;-68
2022/09/22 09:57:37;;;;;;;0.80;0.80;;;13.40;99.90;;;;;;6116044;29;20189;-67
2022/09/22 10:00:56;;;;;;;0.95;0.95;;;13.30;99.90;;;;;;6116610;29;20256;-68
2022/09/22 10:04:00;;;;;;;1.35;1.00;;;13.30;99.90;;;;;;6116236;29;20291;-68
2022/09/22 10:07:18;;;;;;;3.45;1.13;;;13.40;99.90;;;;;;6116576;29;20190;-68
2022/09/22 10:10:30;;;;;;;2.38;0.90;;;13.50;99.90;;;;;;6132037;29;20228;-67
2022/09/22 10:13:35;;;;;;;2.97;1.30;;;13.50;99.90;;;;;;6163394;28;20472;-67
2022/09/22 10:16:51;;;;;;;0.98;0.98;;;13.50;99.90;;;;;;6164036;29;20188;-68
2022/09/22 10:20:19;;;;;;;0.98;0.98;;;13.50;99.90;;;;;;6163451;28;20254;-68
2022/09/22 10:23:25;;;;;;;0.90;0.90;;;13.60;99.90;;;;;;6163015;28;20589;-68
2022/09/22 10:26:31;;;;;;;2.83;1.40;;;13.60;99.90;;;;;;6163798;28;20259;-67
2022/09/22 10:29:41;;;;;;;2.50;1.20;;;13.60;99.90;;;;;;6163155;28;20231;-67
2022/09/22 10:33:21;;;;;;;2.53;1.05;;;13.70;99.90;;;;;;6167174;28;20350;-67
2022/09/22 10:36:29;;;;;;;6.07;0.90;;;13.80;99.90;;;;;;6167667;29;20420;-67
2022/09/22 10:39:41;;;;;;;1.38;1.10;;;13.90;99.90;;;;;;6167418;28;20231;-67
2022/09/22 10:42:47;;;;;;;3.72;1.20;;;14.00;99.90;;;;;;6167598;28;20227;-67
2022/09/22 10:45:59;;;;;;;3.55;1.20;;;14.10;99.90;;;;;;6167881;28;20254;-69
2022/09/22 10:49:12;;;;;;;4.43;1.20;;;14.20;99.90;;;;;;6167173;28;20420;-67
2022/09/22 10:52:21;;;;;;;2.35;1.17;;;14.30;99.90;;;;;;6167357;28;20239;-67
2022/09/22 10:55:30;;;;;;;1.63;1.08;;;14.40;99.90;;;;;;6143045;29;20251;-67
2022/09/22 10:58:54;;;;;;;4.90;1.08;;;14.40;99.90;;;;;;6142988;29;20459;-67
2022/09/22 11:02:17;;;;;;;1.05;1.00;;;14.50;99.90;;;;;;6143326;29;20215;-68
2022/09/22 11:12:42;;;;;;;2.00;1.23;;;14.40;99.90;;;;;;6119422;29;20269;-67
2022/09/22 11:16:24;;;;;;;1.65;1.00;;;14.40;99.90;;;;;;6119864;29;20195;-67
2022/09/22 11:19:57;;;;;;;3.03;0.98;;;14.50;99.90;;;;;;6118803;29;20239;-68
2022/09/22 11:23:32;;;;;;;1.17;0.70;;;14.50;99.90;;;;;;6119057;29;20239;-67
2022/09/22 11:26:47;;;;;;;3.15;1.00;;;14.70;99.90;;;;;;6119571;29;20190;-67
2022/09/22 11:30:11;;;;;;;0.80;0.80;;;14.80;99.90;;;;;;6119174;29;20233;-67
2022/09/22 11:34:27;;;;;;;7.32;1.38;;;14.90;99.90;;;;;;6118710;29;20284;-68
2022/09/22 11:37:42;;;;;;;7.75;1.45;;;15.00;99.90;;;;;;6036779;29;20243;-68
2022/09/22 11:41:04;;;;;;;2.78;1.10;;;15.10;99.90;;;;;;6119328;29;20189;-67
2022/09/22 11:44:39;;;;;;;0.90;0.90;;;15.10;99.90;;;;;;6118371;29;20233;-67
2022/09/22 11:48:02;;;;;;;0.80;0.80;;;15.10;99.90;;;;;;6118406;29;20473;-68
2022/09/22 11:51:50;;;;;;;3.45;0.98;;;15.10;99.90;;;;;;6118570;29;20420;-67
2022/09/22 11:55:24;;;;;;;0.90;0.90;;;15.10;99.90;;;;;;6109926;29;20474;-67
2022/09/22 11:58:30;;;;;;;1.70;1.60;;;15.20;99.90;;;;;;6117697;29;20244;-68
2022/09/22 12:01:39;;;;;;;1.58;1.58;;;15.20;99.90;;;;;;6118239;29;20452;-67
2022/09/22 12:04:49;;;;;;;4.93;1.70;;;15.20;99.90;;;;;;6118353;29;20263;-68
2022/09/22 12:07:59;;;;;;;2.28;1.30;;;15.20;99.90;;;;;;6118198;29;20239;-68
2022/09/22 12:11:05;;;;;;;0.88;0.88;;;15.20;99.90;;;;;;6145297;29;20421;-68
2022/09/22 12:14:13;;;;;;;1.45;1.33;;;15.30;99.90;;;;;;6165308;28;20235;-67
2022/09/22 12:17:23;;;;;;;1.15;1.15;;;15.20;99.90;;;;;;6164707;28;20486;-68
2022/09/22 12:20:43;;;;;;;1.50;1.00;;;15.20;99.90;;;;;;6165230;29;20223;-68
2022/09/22 12:23:48;;;;;;;10.73;0.95;;;15.10;99.90;;;;;;6163764;29;20409;-68
2022/09/22 12:26:54;;;;;;;4.70;1.17;;;15.00;99.90;;;;;;6165002;28;20251;-68
2022/09/22 12:30:01;;;;;;;2.72;1.05;;;15.00;99.90;;;;;;6164951;28;20553;-67
2022/09/22 12:33:14;;;;;;;1.23;0.90;;;15.00;99.90;;;;;;6164525;28;20593;-67
2022/09/22 12:36:29;;;;;;;3.10;1.00;;;15.00;99.90;;;;;;6165347;29;20215;-67
2022/09/22 12:39:33;;;;;;;3.00;0.80;;;15.00;99.90;;;;;;6164778;28;20253;-67
2022/09/22 12:42:38;;;;;;;1.55;0.77;;;15.10;99.90;;;;;;6164570;28;20231;-67
2022/09/22 12:45:43;;;;;;;0.90;0.90;;;15.10;99.90;;;;;;6164618;29;20464;-66
2022/09/22 12:48:47;;;;;;;2.65;0.90;;;15.10;99.90;;;;;;6164503;28;20235;-67
2022/09/22 12:51:53;;;;;;;2.08;0.93;;;15.20;99.90;;;;;;6164617;29;20537;-67
2022/09/22 12:55:17;;;;;;;4.03;0.95;;;15.20;99.90;;;;;;6163756;28;20238;-67
2022/09/22 12:58:40;;;;;;;1.02;0.88;;;15.30;99.90;;;;;;6164092;28;20234;-67
2022/09/22 13:01:44;;;;;;;1.02;1.00;;;15.30;99.90;;;;;;6164329;29;20418;-67
2022/09/22 13:05:32;;;;;;;3.97;1.00;;;15.40;99.90;;;;;;6164514;28;20346;-66
2022/09/22 13:09:20;;;;;;;1.48;0.70;;;15.40;99.90;;;;;;6164218;28;20231;-67
2022/09/22 13:12:30;;;;;;;3.33;1.67;;;15.50;99.80;;;;;;6069683;29;20476;-67
2022/09/22 13:15:55;;;;;;;1.52;1.40;;;15.50;99.90;;;;;;6070885;29;20261;-66
2022/09/22 13:19:00;;;;;;;1.98;1.10;;;15.50;99.80;;;;;;6069884;29;20233;-66
2022/09/22 13:22:18;;;;;;;2.00;1.00;;;15.50;99.90;;;;;;6070470;29;20225;-67
2022/09/22 13:25:26;;;;;;;1.10;1.00;;;15.50;99.90;;;;;;6070071;29;20214;-66
2022/09/22 13:28:30;;;;;;;1.15;0.75;;;15.50;99.90;;;;;;6069765;29;20558;-67
2022/09/22 13:31:38;;;;;;;1.52;0.75;;;15.60;99.50;;;;;;6070352;29;20190;-67
2022/09/22 13:34:42;;;;;;;0.75;0.75;;;15.70;99.10;;;;;;6070045;29;20313;-67
2022/09/22 13:37:46;;;;;;;1.45;0.90;;;15.70;99.30;;;;;;6070040;29;20233;-67
2022/09/22 13:40:52;;;;;;;0.90;0.90;;;15.80;99.90;;;;;;6070276;29;20190;-68
2022/09/22 13:43:59;;;;;;;2.05;0.95;;;15.70;99.90;;;;;;6069549;29;20234;-67
2022/09/22 13:47:07;;;;;;;3.25;1.13;;;15.70;99.90;;;;;;6069660;29;20206;-67
2022/09/22 13:50:15;;;;;;;1.52;0.88;;;15.80;99.90;;;;;;6069657;29;20234;-67
2022/09/22 13:53:24;;;;;;;2.92;1.00;;;15.90;99.90;;;;;;6069755;29;20238;-67
2022/09/22 13:56:31;;;;;;;0.80;0.80;;;16.20;98.80;;;;;;6070031;29;20232;-68
2022/09/22 13:59:40;;;;;;;4.07;1.00;;;16.30;99.30;;;;;;6069563;29;20233;-67
2022/09/22 14:02:45;;;;;;;10.23;0.93;;;16.30;99.20;;;;;;6069430;29;20237;-67
2022/09/22 14:05:50;;;;;;;0.70;0.70;;;16.20;99.90;;;;;;6070464;29;20537;-66
2022/09/22 14:08:57;;;;;;;0.90;0.90;;;16.40;98.20;;;;;;6077263;29;20239;-67
2022/09/22 14:12:03;;;;;;;0.98;0.85;;;16.10;98.60;;;;;;6163253;29;20191;-66
2022/09/22 14:15:42;;;;;;;3.20;1.10;;;15.80;98.50;;;;;;6166813;29;20370;-67
2022/09/22 14:18:50;;;;;;;2.00;0.90;;;15.80;99.90;;;;;;6168253;28;20342;-67
2022/09/22 14:21:57;;;;;;;1.42;1.15;;;15.80;97.50;;;;;;6168356;29;20259;-67
2022/09/22 14:25:03;;;;;;;1.20;1.20;;;15.80;97.90;;;;;;6167723;28;20376;-67
2022/09/22 14:28:20;;;;;;;0.95;0.90;;;15.60;99.30;;;;;;6167271;28;20267;-67
2022/09/22 14:31:28;;;;;;;0.90;0.90;;;15.60;98.70;;;;;;6167999;29;20187;-69
2022/09/22 14:34:33;;;;;;;1.17;1.08;;;15.60;99.90;;;;;;6167218;28;20239;-66
2022/09/22 14:37:41;;;;;;;0.80;0.80;;;15.60;99.70;;;;;;6167269;28;20234;-67
2022/09/22 14:40:52;;;;;;;0.90;0.90;;;15.60;98.80;;;;;;6168058;29;20219;-67
2022/09/22 14:43:59;;;;;;;1.38;1.17;;;15.70;99.20;;;;;;6167386;28;20306;-67
2022/09/22 14:47:24;;;;;;;1.85;0.98;;;15.60;98.70;;;;;;6167665;29;20254;-68
2022/09/22 14:50:38;;;;;;;4.85;0.80;;;15.70;96.40;;;;;;6143519;29;20492;-67
2022/09/22 14:53:45;;;;;;;0.90;0.90;;;15.80;97.20;;;;;;6143339;29;20232;-67
2022/09/22 14:56:51;;;;;;;0.70;0.70;;;15.70;97.10;;;;;;6143743;29;20188;-67
2022/09/22 15:03:25;;;;;;;2.28;1.00;;;15.70;96.80;;;;;;6143017;29;20287;-68
2022/09/22 15:06:33;;;;;;;2.97;1.00;;;15.70;96.50;;;;;;6143132;29;20220;-68
2022/09/22 15:09:43;;;;;;;4.75;1.52;;;15.60;97.00;;;;;;6139789;29;20403;-67
2022/09/22 15:12:47;;;;;;;3.08;1.25;;;15.60;97.40;;;;;;6123328;29;20224;-68
2022/09/22 15:15:54;;;;;;;1.52;1.20;;;15.50;98.70;;;;;;6143500;29;20188;-67
2022/09/22 15:18:59;;;;;;;7.20;1.65;;;15.50;97.60;;;;;;6141836;28;20258;-68
2022/09/22 15:22:04;;;;;;;5.90;2.85;;;15.40;97.90;;;;;;6142872;29;20255;-68
2022/09/22 15:25:15;;;;;;;3.88;2.15;;;15.50;98.00;;;;;;6142384;29;20323;-68
2022/09/22 15:28:22;;;;;;;5.80;2.25;;;15.40;98.10;;;;;;6142509;29;20295;-68
2022/09/22 15:31:29;;;;;;;1.60;1.50;;;15.30;98.90;;;;;;6142430;29;20475;-68
2022/09/22 15:34:34;;;;;;;2.00;1.90;;;15.20;99.10;;;;;;6142314;29;20238;-69
2022/09/22 15:37:40;;;;;;;3.42;1.10;;;15.20;98.70;;;;;;6141791;29;20246;-69
2022/09/22 15:40:45;;;;;;;5.20;1.30;;;15.20;98.20;;;;;;6142764;29;20264;-68
2022/09/22 15:43:50;;;;;;;1.50;1.40;;;15.20;99.60;;;;;;6142366;29;20324;-68
2022/09/22 15:47:00;;;;;;;1.85;1.13;;;15.10;98.70;;;;;;6142810;29;20219;-68
2022/09/22 15:50:05;;;;;;;1.20;1.20;;;15.10;98.50;;;;;;6142117;29;20232;-68
2022/09/22 15:53:11;;;;;;;1.23;0.98;;;15.10;99.90;;;;;;6141654;29;20295;-68
2022/09/22 15:56:17;;;;;;;2.33;1.08;;;15.00;99.90;;;;;;6141916;29;20498;-68
2022/09/22 15:59:26;;;;;;;1.55;1.10;;;14.90;99.90;;;;;;6141687;29;20565;-67
2022/09/22 16:02:32;;;;;;;1.38;1.00;;;14.90;99.90;;;;;;6141768;29;20199;-67
2022/09/22 16:05:37;;;;;;;1.33;1.33;;;14.80;99.90;;;;;;6141751;29;20196;-67
2022/09/22 16:08:44;;;;;;;1.80;1.35;;;14.70;99.90;;;;;;6141720;29;20302;-67
2022/09/22 16:11:49;;;;;;;1.00;1.00;;;14.60;99.90;;;;;;6161656;29;20192;-68
2022/09/22 16:14:55;;;;;;;1.20;1.20;;;14.60;99.90;;;;;;6165399;28;20227;-67
2022/09/22 16:18:01;;;;;;;1.80;1.38;;;14.60;99.90;;;;;;6164895;28;20347;-67
2022/09/22 16:21:07;;;;;;;1.50;1.10;;;14.40;99.90;;;;;;6165759;28;20192;-68
2022/09/22 16:24:12;;;;;;;2.95;1.27;;;14.50;99.90;;;;;;6165111;28;20549;-68
2022/09/22 16:27:16;;;;;;;1.75;1.20;;;14.50;99.90;;;;;;6163777;29;20194;-68
2022/09/22 16:30:20;;;;;;;4.90;1.23;;;14.40;99.90;;;;;;6164499;28;20470;-68
2022/09/22 16:33:31;;;;;;;2.78;1.85;;;14.30;99.90;;;;;;6164496;28;20227;-69
2022/09/22 16:36:38;;;;;;;1.70;1.30;;;14.30;99.90;;;;;;6164886;29;20188;-70
2022/09/22 16:39:42;;;;;;;5.38;1.58;;;14.30;99.90;;;;;;6164592;28;20231;-68
2022/09/22 16:42:47;;;;;;;2.83;1.25;;;14.20;99.90;;;;;;6164860;28;20233;-68
2022/09/22 16:49:16;;;;;;;2.00;1.48;;;14.10;99.90;;;;;;6164548;28;20258;-68